createdAt,value
2023-02-08T00:04:11.281Z,100.00
2023-02-08T00:09:16.391Z,100.00
2023-02-08T00:14:20.242Z,100.00
2023-02-08T00:19:24.021Z,100.00
2023-02-08T00:24:29.200Z,100.00
2023-02-08T00:29:33.581Z,100.00
2023-02-08T00:34:37.399Z,100.00
2023-02-08T00:39:42.494Z,100.00
2023-02-08T00:44:46.418Z,100.00
2023-02-08T00:49:50.166Z,100.00
2023-02-08T00:54:55.276Z,100.00
2023-02-08T00:59:59.039Z,100.00
2023-02-08T01:05:02.820Z,100.00
2023-02-08T01:10:12.908Z,100.00
2023-02-08T01:15:17.786Z,100.00
2023-02-08T01:20:21.722Z,100.00
2023-02-08T01:25:26.899Z,100.00
2023-02-08T01:30:30.761Z,100.00
2023-02-08T01:35:34.594Z,100.00
2023-02-08T01:40:40.092Z,100.00
2023-02-08T01:45:44.133Z,100.00
2023-02-08T01:50:53.585Z,100.00
2023-02-08T01:56:10.766Z,100.00
2023-02-08T02:01:15.333Z,100.00
2023-02-08T02:06:25.103Z,100.00
2023-02-08T02:11:30.353Z,100.00
2023-02-08T02:16:34.209Z,100.00
2023-02-08T02:21:55.740Z,100.00
2023-02-08T02:27:21.646Z,100.00
2023-02-08T02:32:40.356Z,100.00
2023-02-08T02:37:56.424Z,100.00
2023-02-08T02:43:24.808Z,100.00
2023-02-08T02:48:39.718Z,100.00
2023-02-08T02:53:51.097Z,100.00
2023-02-08T02:58:59.868Z,100.00
2023-02-08T03:04:15.393Z,100.00
2023-02-08T03:09:49.211Z,100.00
2023-02-08T03:15:03.929Z,100.00
2023-02-08T03:20:13.426Z,100.00
2023-02-08T03:25:22.142Z,100.00
2023-02-08T03:30:31.951Z,100.00
2023-02-08T03:35:45.210Z,100.00
2023-02-08T03:40:52.938Z,100.00
2023-02-08T03:46:03.100Z,100.00
2023-02-08T03:51:10.073Z,100.00
2023-02-08T03:56:19.976Z,100.00
2023-02-08T04:01:29.653Z,100.00
2023-02-08T04:06:34.850Z,100.00
2023-02-08T04:11:38.605Z,100.00
2023-02-08T04:16:42.337Z,100.00
2023-02-08T04:21:47.593Z,100.00
2023-02-08T04:26:52.570Z,100.00
2023-02-08T04:31:56.506Z,100.00
2023-02-08T04:37:01.668Z,100.00
2023-02-08T04:42:05.613Z,100.00
2023-02-08T04:47:09.689Z,100.00
2023-02-08T04:52:14.802Z,100.00
2023-02-08T04:57:18.568Z,100.00
2023-02-08T05:02:22.293Z,100.00
2023-02-08T05:07:27.369Z,100.00
2023-02-08T05:12:31.194Z,100.00
2023-02-08T05:17:34.997Z,100.00
2023-02-08T05:22:40.197Z,100.00
2023-02-08T05:27:43.924Z,100.00
2023-02-08T05:32:47.723Z,100.00
2023-02-08T05:37:52.928Z,100.00
2023-02-08T05:42:56.732Z,100.00
2023-02-08T05:48:00.542Z,100.00
2023-02-08T05:53:05.669Z,100.00
2023-02-08T05:58:09.709Z,100.00
2023-02-08T06:03:13.678Z,100.00
2023-02-08T06:08:19.017Z,100.00
2023-02-08T06:13:22.821Z,100.00
2023-02-08T06:18:26.804Z,100.00
2023-02-08T06:23:31.919Z,100.00
2023-02-08T06:28:35.661Z,100.00
2023-02-08T06:33:39.401Z,100.00
2023-02-08T06:38:45.029Z,100.00
2023-02-08T06:43:48.780Z,100.00
2023-02-08T06:48:52.563Z,100.00
2023-02-08T06:53:57.716Z,100.00
2023-02-08T06:59:01.431Z,100.00
2023-02-08T07:04:05.529Z,100.00
2023-02-08T07:09:10.645Z,100.00
2023-02-08T07:14:15.708Z,100.00
2023-02-08T07:19:19.449Z,100.00
2023-02-08T07:24:24.915Z,100.00
2023-02-08T07:29:30.615Z,100.00
2023-02-08T07:34:36.755Z,100.00
2023-02-08T07:39:42.141Z,100.00
2023-02-08T07:44:46.102Z,100.00
2023-02-08T07:49:49.840Z,100.00
2023-02-08T07:54:54.976Z,100.00
2023-02-08T07:59:58.738Z,100.00
2023-02-08T08:05:02.519Z,100.00
2023-02-08T08:10:08.254Z,100.00
2023-02-08T08:15:12.089Z,100.00
2023-02-08T08:20:15.821Z,100.00
2023-02-08T08:25:21.000Z,100.00
2023-02-08T08:30:25.088Z,100.00
2023-02-08T08:35:28.941Z,100.00
2023-02-08T08:40:34.162Z,100.00
2023-02-08T08:45:38.261Z,100.00
2023-02-08T08:50:43.279Z,100.00
2023-02-08T08:55:48.485Z,100.00
2023-02-08T09:00:52.274Z,100.00
2023-02-08T09:05:56.148Z,100.00
2023-02-08T09:11:07.144Z,100.00
2023-02-08T09:16:14.592Z,100.00
2023-02-08T09:21:20.921Z,100.00
2023-02-08T09:26:26.601Z,100.00
2023-02-08T09:31:32.673Z,100.00
2023-02-08T09:36:38.429Z,100.00
2023-02-08T09:42:04.577Z,100.00
2023-02-08T09:47:14.714Z,100.00
2023-02-08T09:52:25.215Z,100.00
2023-02-08T09:57:36.188Z,100.00
2023-02-08T10:02:42.918Z,100.00
2023-02-08T10:07:47.071Z,100.00
2023-02-08T10:13:00.105Z,100.00
2023-02-08T10:18:24.439Z,100.00
2023-02-08T10:23:56.478Z,100.00
2023-02-08T10:29:25.934Z,100.00
2023-02-08T10:34:39.733Z,100.00
2023-02-08T10:39:44.150Z,100.00
2023-02-08T10:44:57.527Z,100.00
2023-02-08T10:50:03.983Z,100.00
2023-02-08T10:55:14.664Z,100.00
2023-02-08T11:00:23.380Z,100.00
2023-02-08T11:05:35.096Z,100.00
2023-02-08T11:10:40.069Z,100.00
2023-02-08T11:15:48.609Z,100.00
2023-02-08T11:20:54.605Z,100.00
2023-02-08T11:26:18.177Z,100.00
2023-02-08T11:31:23.263Z,100.00
2023-02-08T11:36:27.830Z,100.00
2023-02-08T11:41:31.928Z,74.59
2023-02-08T11:46:39.503Z,81.51
2023-02-08T11:51:43.328Z,64.93
2023-02-08T11:57:02.894Z,58.17
2023-02-08T12:02:32.351Z,55.18
2023-02-08T12:07:48.873Z,42.64
2023-02-08T12:13:10.104Z,48.86
2023-02-08T12:18:36.567Z,40.72
2023-02-08T12:23:49.597Z,45.41
2023-02-08T12:29:10.964Z,43.53
2023-02-08T12:34:23.686Z,40.76
2023-02-08T12:40:00.735Z,41.23
2023-02-08T12:45:28.893Z,37.57
2023-02-08T12:50:42.572Z,36.90
2023-02-08T12:55:49.887Z,33.96
2023-02-08T13:00:56.825Z,35.74
2023-02-08T13:06:07.708Z,35.24
2023-02-08T13:11:20.103Z,30.25
2023-02-08T13:16:27.290Z,31.63
2023-02-08T13:21:38.071Z,31.54
2023-02-08T13:26:42.171Z,30.57
2023-02-08T13:31:49.745Z,29.73
2023-02-08T13:36:59.538Z,29.88
2023-02-08T13:42:05.717Z,29.16
2023-02-08T13:47:25.589Z,27.65
2023-02-08T13:52:53.687Z,26.10
2023-02-08T13:57:58.930Z,24.44
2023-02-08T14:03:04.564Z,24.93
2023-02-08T14:08:19.965Z,25.76
2023-02-08T14:13:30.222Z,24.85
2023-02-08T14:18:33.977Z,23.97
2023-02-08T14:23:40.819Z,23.56
2023-02-08T14:28:48.814Z,23.36
2023-02-08T14:33:54.411Z,23.54
2023-02-08T14:39:29.028Z,22.17
2023-02-08T14:44:57.156Z,22.30
2023-02-08T14:50:09.655Z,22.46
2023-02-08T14:55:20.721Z,24.32
2023-02-08T15:00:27.946Z,24.96
2023-02-08T15:05:38.089Z,26.30
2023-02-08T15:10:45.091Z,25.87
2023-02-08T15:15:53.862Z,25.66
2023-02-08T15:21:03.439Z,25.13
2023-02-08T15:26:21.999Z,25.47
2023-02-08T15:31:31.799Z,25.92
2023-02-08T15:36:38.497Z,27.56
2023-02-08T15:41:43.616Z,29.32
2023-02-08T15:46:48.528Z,29.76
2023-02-08T15:51:54.654Z,30.85
2023-02-08T15:57:03.878Z,30.62
2023-02-08T16:02:21.290Z,30.61
2023-02-08T16:07:29.471Z,32.87
2023-02-08T16:12:35.853Z,32.69
2023-02-08T16:17:44.719Z,33.65
2023-02-08T16:22:56.844Z,35.03
2023-02-08T16:28:02.406Z,34.46
2023-02-08T16:33:08.776Z,34.31
2023-02-08T16:38:21.324Z,35.20
2023-02-08T16:43:31.721Z,35.91
2023-02-08T16:48:37.545Z,37.22
2023-02-08T16:53:42.796Z,37.25
2023-02-08T16:58:48.057Z,37.84
2023-02-08T17:03:53.000Z,38.96
2023-02-08T17:08:57.123Z,40.16
2023-02-08T17:14:02.230Z,39.90
2023-02-08T17:19:06.050Z,41.11
2023-02-08T17:24:09.868Z,40.71
2023-02-08T17:29:15.434Z,41.35
2023-02-08T17:34:19.249Z,41.20
2023-02-08T17:39:23.099Z,41.37
2023-02-08T17:44:28.376Z,42.10
2023-02-08T17:49:32.133Z,42.18
2023-02-08T17:54:37.659Z,41.97
2023-02-08T17:59:43.245Z,42.51
2023-02-08T18:04:47.276Z,42.56
2023-02-08T18:09:51.042Z,43.20
2023-02-08T18:14:56.145Z,43.91
2023-02-08T18:20:02.178Z,44.83
2023-02-08T18:25:07.995Z,44.68
2023-02-08T18:30:14.523Z,45.40
2023-02-08T18:35:18.407Z,45.72
2023-02-08T18:40:22.971Z,46.92
2023-02-08T18:45:28.247Z,48.54
2023-02-08T18:50:32.309Z,50.15
2023-02-08T18:55:36.150Z,52.13
2023-02-08T19:00:41.844Z,53.95
2023-02-08T19:05:46.442Z,55.80
2023-02-08T19:10:50.474Z,58.58
2023-02-08T19:15:55.927Z,60.75
2023-02-08T19:21:04.972Z,62.36
2023-02-08T19:26:17.241Z,64.52
2023-02-08T19:31:24.519Z,65.84
2023-02-08T19:36:30.792Z,68.50
2023-02-08T19:41:37.096Z,71.77
2023-02-08T19:46:44.266Z,72.22
2023-02-08T19:51:48.286Z,74.96
2023-02-08T19:56:54.809Z,79.00
2023-02-08T20:02:01.810Z,83.19
2023-02-08T20:07:06.414Z,81.32
2023-02-08T20:12:10.150Z,85.96
2023-02-08T20:17:15.286Z,81.38
2023-02-08T20:22:19.427Z,83.74
2023-02-08T20:27:23.227Z,84.02
2023-02-08T20:32:28.861Z,85.81
2023-02-08T20:37:32.925Z,84.07
2023-02-08T20:42:37.229Z,80.40
2023-02-08T20:47:46.669Z,81.01
2023-02-08T20:52:50.709Z,84.37
2023-02-08T20:57:54.459Z,88.01
2023-02-08T21:02:59.590Z,89.08
2023-02-08T21:08:03.534Z,89.48
2023-02-08T21:13:07.312Z,91.32
2023-02-08T21:18:12.660Z,90.26
2023-02-08T21:23:17.129Z,91.54
2023-02-08T21:28:21.226Z,92.50
2023-02-08T21:33:26.772Z,91.81
2023-02-08T21:38:30.906Z,92.38
2023-02-08T21:43:34.681Z,89.26
2023-02-08T21:48:53.804Z,94.76
2023-02-08T21:54:14.860Z,95.18
2023-02-08T21:59:18.581Z,95.49
2023-02-08T22:04:23.777Z,96.31
2023-02-08T22:09:29.102Z,89.77
2023-02-08T22:14:35.080Z,93.07
2023-02-08T22:19:40.623Z,91.11
2023-02-08T22:24:44.422Z,90.87
2023-02-08T22:29:48.161Z,91.31
2023-02-08T22:34:53.542Z,91.92
2023-02-08T22:39:57.405Z,95.14
2023-02-08T22:45:01.210Z,92.44
2023-02-08T22:50:07.859Z,93.81
2023-02-08T22:55:12.368Z,95.48
2023-02-08T23:00:18.388Z,97.38
2023-02-08T23:05:23.550Z,96.12
2023-02-08T23:10:29.558Z,100.00
2023-02-08T23:15:38.815Z,100.00
2023-02-08T23:20:44.288Z,100.00
2023-02-08T23:25:48.975Z,100.00
2023-02-08T23:30:52.826Z,100.00
2023-02-08T23:35:57.932Z,100.00
2023-02-08T23:41:04.028Z,100.00
2023-02-08T23:46:08.686Z,100.00
2023-02-08T23:51:13.832Z,100.00
2023-02-08T23:56:20.662Z,97.11
